Time;durP1;ratioP1;P1;durP2;ratioP2;P2;SDS_P1;SDS_P2;PMS_P1;PMS_P2;Temp;Humidity;BMP_temperature;BMP_pressure;BME280_temperature;BME280_humidity;BME280_pressure;Samples;Min_cycle;Max_cycle;Signal;HPM_P1;HPM_P2
2023/12/07 00:01:10;;;;;;;;;;;;;;;16.12;48.19;100376.72;4977882;28;1167;-49
2023/12/07 00:03:35;;;;;;;;;;;;;;;15.62;47.71;100371.63;4978005;28;1080;-47
2023/12/07 00:06:01;;;;;;;;;;;;;;;16.35;48.42;100370.59;4961796;28;1061;-53
2023/12/07 00:08:26;;;;;;;;;;;;;;;15.95;48.10;100372.69;4968651;28;1156;-51
2023/12/07 00:10:52;;;;;;;;;;;;;;;15.59;47.11;100371.84;4961289;28;1157;-47
2023/12/07 00:13:17;;;;;;;;;;;;;;;16.51;47.99;100378.19;4958626;28;1139;-46
2023/12/07 00:15:43;;;;;;;;;;;;;;;15.87;47.89;100375.06;4971825;28;1907;-46
2023/12/07 00:18:09;;;;;;;;;;;;;;;15.39;47.22;100372.41;4974702;28;878;-47
2023/12/07 00:20:34;;;;;;;;;;;;;;;15.90;48.78;100388.94;4961261;28;1073;-49
2023/12/07 00:23:00;;;;;;;;;;;;;;;15.94;47.99;100392.22;4968404;28;1093;-48
2023/12/07 00:25:25;;;;;;;;;;;;;;;15.51;47.17;100380.38;4974758;28;1183;-48
2023/12/07 00:27:52;;;;;;;;;;;;;;;15.34;46.71;100390.44;4958804;28;1092;-49
2023/12/07 00:30:17;;;;;;;;;;;;;;;16.62;47.04;100398.59;4971250;28;922;-49
2023/12/07 00:32:43;;;;;;;;;;;;;;;15.61;47.84;100399.97;4958620;28;1089;-47
2023/12/07 00:35:12;;;;;;;;;;;;;;;15.46;46.74;100391.34;4970119;28;1962;-51
2023/12/07 00:37:38;;;;;;;;;;;;;;;16.18;48.18;100398.44;4968452;28;1057;-48
2023/12/07 00:40:04;;;;;;;;;;;;;;;16.00;48.08;100391.78;4974277;28;1245;-49
2023/12/07 00:42:29;;;;;;;;;;;;;;;15.55;47.48;100397.75;4975072;28;887;-49
2023/12/07 00:44:55;;;;;;;;;;;;;;;16.18;48.19;100395.78;4974512;28;1107;-49
2023/12/07 00:47:21;;;;;;;;;;;;;;;16.20;47.96;100389.41;4968051;28;1073;-49
2023/12/07 00:49:46;;;;;;;;;;;;;;;15.59;47.80;100385.97;4964590;28;1224;-47
2023/12/07 00:52:12;;;;;;;;;;;;;;;15.88;48.39;100387.38;4977437;28;1088;-50
2023/12/07 00:54:39;;;;;;;;;;;;;;;16.08;48.15;100383.22;4962616;28;1902;-51
2023/12/07 00:57:05;;;;;;;;;;;;;;;15.60;47.49;100378.88;4969552;28;1113;-46
2023/12/07 00:59:33;;;;;;;;;;;;;;;16.50;48.29;100380.00;4970800;28;1088;-50
2023/12/07 01:02:05;;;;;;;;;;;;;;;15.77;47.90;100374.91;4958027;28;1026;-46
2023/12/07 01:04:31;;;;;;;;;;;;;;;16.05;48.88;100379.97;4962249;28;1200;-49
2023/12/07 01:06:56;;;;;;;;;;;;;;;16.53;47.27;100378.94;4957735;28;986;-48
2023/12/07 01:09:22;;;;;;;;;;;;;;;15.69;47.86;100375.50;4970789;28;1189;-47
2023/12/07 01:11:49;;;;;;;;;;;;;;;15.45;47.55;100372.91;4969031;28;1236;-52
2023/12/07 01:14:14;;;;;;;;;;;;;;;16.19;48.44;100381.56;4964564;28;1973;-50
2023/12/07 01:16:40;;;;;;;;;;;;;;;15.71;47.87;100362.13;4977602;28;1503;-50
2023/12/07 01:19:07;;;;;;;;;;;;;;;15.66;48.38;100359.84;4961748;28;1120;-46
2023/12/07 01:21:32;;;;;;;;;;;;;;;16.58;47.03;100366.13;4972603;28;1247;-48
2023/12/07 01:23:58;;;;;;;;;;;;;;;15.67;47.66;100359.72;4963889;28;1132;-48
2023/12/07 01:26:24;;;;;;;;;;;;;;;15.55;46.97;100365.94;4961568;28;1050;-47
2023/12/07 01:28:49;;;;;;;;;;;;;;;16.52;47.25;100372.78;4977506;28;1148;-51
2023/12/07 01:31:15;;;;;;;;;;;;;;;15.76;47.76;100365.28;4961726;28;1105;-48
2023/12/07 01:33:40;;;;;;;;;;;;;;;15.46;46.88;100367.47;4974168;28;1132;-48
2023/12/07 01:36:06;;;;;;;;;;;;;;;16.76;47.24;100378.91;4962002;28;1902;-48
2023/12/07 01:38:32;;;;;;;;;;;;;;;15.76;47.57;100379.41;4972893;28;1251;-47
2023/12/07 01:40:57;;;;;;;;;;;;;;;15.40;47.34;100376.72;4962652;28;1044;-46
2023/12/07 01:43:23;;;;;;;;;;;;;;;15.29;46.49;100374.03;4976328;28;1103;-51
2023/12/07 01:45:50;;;;;;;;;;;;;;;16.30;47.61;100375.44;4972361;28;1089;-47
2023/12/07 01:48:15;;;;;;;;;;;;;;;15.63;47.15;100374.16;4980889;28;1167;-48
2023/12/07 01:50:41;;;;;;;;;;;;;;;15.39;46.78;100375.03;4970391;28;1139;-47
2023/12/07 01:53:07;;;;;;;;;;;;;;;16.75;46.91;100364.78;4974173;28;1082;-49
2023/12/07 01:55:32;;;;;;;;;;;;;;;15.91;47.70;100368.59;4961080;28;1980;-46
2023/12/07 01:57:58;;;;;;;;;;;;;;;15.53;47.27;100373.19;4985721;28;1568;-44
2023/12/07 02:00:23;;;;;;;;;;;;;;;15.35;46.47;100370.09;4959727;28;924;-48
2023/12/07 02:02:50;;;;;;;;;;;;;;;16.33;47.05;100385.81;4964849;28;1153;-52
2023/12/07 02:05:15;;;;;;;;;;;;;;;15.53;47.55;100391.72;4970130;28;1066;-49
2023/12/07 02:07:41;;;;;;;;;;;;;;;16.20;47.87;100394.69;4976593;28;1252;-51
2023/12/07 02:10:07;;;;;;;;;;;;;;;16.08;47.39;100388.53;4979912;28;1033;-49
2023/12/07 02:12:32;;;;;;;;;;;;;;;15.59;47.44;100385.09;4976185;28;1088;-47
2023/12/07 02:14:59;;;;;;;;;;;;;;;15.41;46.42;100389.00;4960440;28;1898;-50
2023/12/07 02:17:27;;;;;;;;;;;;;;;15.46;46.77;100391.34;4963151;28;1227;-47
2023/12/07 02:19:57;;;;;;;;;;;;;;;16.23;47.15;100401.59;4978824;28;1113;-46
2023/12/07 02:22:29;;;;;;;;;;;;;;;15.47;47.01;100387.72;4967005;28;1060;-49
2023/12/07 02:25:06;;;;;;;;;;;;;;;15.93;48.07;100395.00;4966871;28;1141;-46
2023/12/07 02:27:41;;;;;;;;;;;;;;;15.84;47.55;100388.56;4955193;28;1014;-48
2023/12/07 02:30:07;;;;;;;;;;;;;;;16.87;47.12;100384.22;4970013;28;1161;-48
2023/12/07 02:32:33;;;;;;;;;;;;;;;17.45;45.94;100387.56;4960821;28;1143;-48
2023/12/07 02:34:59;;;;;;;;;;;;;;;16.16;47.72;100391.44;4974156;28;1976;-51
2023/12/07 02:37:27;;;;;;;;;;;;;;;15.79;47.12;100394.22;4979109;28;1148;-47
2023/12/07 02:39:53;;;;;;;;;;;;;;;15.48;46.32;100388.56;4963735;28;1262;-47
2023/12/07 02:42:18;;;;;;;;;;;;;;;15.87;47.36;100396.28;4959365;28;1162;-47
2023/12/07 02:44:44;;;;;;;;;;;;;;;16.62;47.25;100402.09;4959597;28;1158;-51
2023/12/07 02:47:09;;;;;;;;;;;;;;;15.80;47.73;100401.22;4967381;28;887;-48
2023/12/07 02:49:35;;;;;;;;;;;;;;;15.56;46.81;100402.09;4965336;28;1272;-45
2023/12/07 02:52:00;;;;;;;;;;;;;;;16.82;47.27;100401.47;4973676;28;1637;-50
2023/12/07 02:54:26;;;;;;;;;;;;;;;15.85;47.68;100398.22;4970680;28;1898;-47
2023/12/07 02:56:52;;;;;;;;;;;;;;;15.50;47.20;100399.88;4967876;28;1069;-48
2023/12/07 02:59:17;;;;;;;;;;;;;;;16.01;47.92;100390.84;4977934;28;1116;-51
2023/12/07 03:01:43;;;;;;;;;;;;;;;15.95;47.83;100391.25;4967548;28;1080;-48
2023/12/07 03:04:08;;;;;;;;;;;;;;;15.55;47.39;100395.94;4966402;28;1228;-48
2023/12/07 03:06:34;;;;;;;;;;;;;;;15.32;46.52;100391.50;4969647;28;917;-46
2023/12/07 03:09:00;;;;;;;;;;;;;;;16.76;46.83;100403.69;4958751;28;1390;-49
2023/12/07 03:11:25;;;;;;;;;;;;;;;15.71;47.59;100402.75;4960181;29;1323;-48
2023/12/07 03:13:51;;;;;;;;;;;;;;;15.57;48.01;100401.13;4959657;29;1129;-47
2023/12/07 03:16:16;;;;;;;;;;;;;;;16.33;47.25;100405.22;4964264;28;1918;-48
2023/12/07 03:18:42;;;;;;;;;;;;;;;15.67;47.47;100396.00;4976922;28;1232;-47
2023/12/07 03:21:07;;;;;;;;;;;;;;;15.49;46.60;100406.16;4965700;28;1148;-49
2023/12/07 03:23:33;;;;;;;;;;;;;;;16.73;46.88;100411.03;4978629;28;1048;-48
2023/12/07 03:25:58;;;;;;;;;;;;;;;15.85;47.53;100406.19;4962636;28;1541;-49
2023/12/07 03:28:24;;;;;;;;;;;;;;;15.58;47.08;100407.28;4964129;28;931;-48
2023/12/07 03:30:50;;;;;;;;;;;;;;;15.69;47.73;100403.81;4967288;28;1065;-48
2023/12/07 03:33:15;;;;;;;;;;;;;;;16.63;46.91;100408.25;4959764;28;1084;-50
2023/12/07 03:35:41;;;;;;;;;;;;;;;15.73;47.40;100400.81;4976554;28;1989;-45
2023/12/07 03:38:06;;;;;;;;;;;;;;;16.13;48.15;100412.06;4965172;28;1196;-49
2023/12/07 03:40:32;;;;;;;;;;;;;;;16.11;47.37;100406.88;4978223;28;1161;-47
2023/12/07 03:42:57;;;;;;;;;;;;;;;15.59;47.10;100401.00;4974028;28;1135;-46
2023/12/07 03:45:23;;;;;;;;;;;;;;;16.89;46.76;100405.34;4959152;28;1172;-51
2023/12/07 03:47:49;;;;;;;;;;;;;;;15.86;47.48;100410.53;4959577;28;1045;-48
2023/12/07 03:50:14;;;;;;;;;;;;;;;15.65;47.50;100405.84;4971450;28;1180;-49
2023/12/07 03:52:40;;;;;;;;;;;;;;;16.36;47.61;100414.75;4972655;28;1240;-48
2023/12/07 03:55:06;;;;;;;;;;;;;;;15.65;47.57;100400.56;4967867;28;1985;-49
2023/12/07 03:57:31;;;;;;;;;;;;;;;15.67;47.96;100409.25;4971557;28;1114;-50
2023/12/07 03:59:57;;;;;;;;;;;;;;;17.09;46.35;100413.53;4966374;28;1152;-50
2023/12/07 04:02:22;;;;;;;;;;;;;;;15.94;47.43;100405.47;4965314;28;1390;-47
2023/12/07 04:04:48;;;;;;;;;;;;;;;15.56;47.02;100420.66;4978060;28;1032;-49
2023/12/07 04:07:14;;;;;;;;;;;;;;;15.40;46.25;100410.31;4964686;28;1099;-46
2023/12/07 04:09:39;;;;;;;;;;;;;;;16.55;47.58;100432.75;4958820;28;1139;-49
2023/12/07 04:12:05;;;;;;;;;;;;;;;15.90;47.61;100428.75;4963753;28;1069;-47
2023/12/07 04:14:30;;;;;;;;;;;;;;;15.58;47.20;100433.81;4963871;28;1910;-50
2023/12/07 04:16:56;;;;;;;;;;;;;;;15.81;47.60;100426.78;4966125;28;1026;-50
2023/12/07 04:19:22;;;;;;;;;;;;;;;16.13;47.79;100436.78;4963832;28;931;-49
2023/12/07 04:21:47;;;;;;;;;;;;;;;15.60;47.21;100438.03;4970669;28;1072;-48
2023/12/07 04:24:13;;;;;;;;;;;;;;;16.05;47.92;100443.66;4958170;28;1200;-57
2023/12/07 04:26:38;;;;;;;;;;;;;;;16.22;47.53;100442.34;4970338;28;1053;-56
2023/12/07 04:29:04;;;;;;;;;;;;;;;15.72;47.25;100430.97;4966155;28;2654;-56
2023/12/07 04:31:29;;;;;;;;;;;;;;;15.51;47.15;100439.56;4967350;28;1180;-58
2023/12/07 04:33:55;;;;;;;;;;;;;;;16.23;47.53;100442.22;4977484;28;1016;-59
2023/12/07 04:36:21;;;;;;;;;;;;;;;15.70;47.42;100447.97;4976929;28;1985;-58
2023/12/07 04:38:46;;;;;;;;;;;;;;;17.02;46.84;100450.38;4964138;28;1720;-59
2023/12/07 04:41:12;;;;;;;;;;;;;;;16.17;47.64;100442.72;4961848;28;1243;-61
2023/12/07 04:43:37;;;;;;;;;;;;;;;15.75;47.17;100449.31;4966885;28;1089;-59
2023/12/07 04:46:03;;;;;;;;;;;;;;;16.74;47.47;100442.78;4968265;28;1491;-57
2023/12/07 04:48:29;;;;;;;;;;;;;;;15.93;47.50;100430.34;4970590;28;1076;-58
2023/12/07 04:50:54;;;;;;;;;;;;;;;15.43;47.40;100437.47;4969582;28;1005;-54
2023/12/07 04:53:20;;;;;;;;;;;;;;;15.45;46.11;100444.47;4963532;28;1152;-59
2023/12/07 04:55:49;;;;;;;;;;;;;;;16.82;47.23;100449.28;4965316;28;1898;-57
2023/12/07 04:58:15;;;;;;;;;;;;;;;15.79;47.74;100449.94;4956601;28;1869;-55
2023/12/07 05:00:41;;;;;;;;;;;;;;;15.53;47.00;100442.09;4958125;28;1568;-51
2023/12/07 05:03:06;;;;;;;;;;;;;;;15.48;46.80;100446.91;4959289;28;1260;-52
2023/12/07 05:05:32;;;;;;;;;;;;;;;16.69;46.88;100449.41;4957219;28;1038;-50
2023/12/07 05:07:57;;;;;;;;;;;;;;;15.74;47.83;100441.47;4965208;28;1044;-51
2023/12/07 05:10:24;;;;;;;;;;;;;;;15.47;46.96;100451.34;4957040;29;1026;-47
2023/12/07 05:12:50;;;;;;;;;;;;;;;15.37;46.16;100442.34;4970267;28;1160;-50
2023/12/07 05:15:15;;;;;;;;;;;;;;;15.20;45.40;100441.78;4967752;28;1971;-54
2023/12/07 05:17:41;;;;;;;;;;;;;;;16.27;47.30;100432.22;4976741;28;1088;-53
2023/12/07 05:20:07;;;;;;;;;;;;;;;15.66;47.51;100437.56;4965116;28;949;-54
2023/12/07 05:22:32;;;;;;;;;;;;;;;15.33;46.90;100435.59;4969703;28;1246;-58
2023/12/07 05:24:58;;;;;;;;;;;;;;;16.72;46.93;100439.41;4955282;28;946;-61
2023/12/07 05:27:23;;;;;;;;;;;;;;;15.79;48.42;100436.66;4956880;28;2359;-52
2023/12/07 05:29:49;;;;;;;;;;;;;;;16.89;45.84;100438.06;4966831;28;1131;-58
2023/12/07 05:32:14;;;;;;;;;;;;;;;16.52;46.42;100441.81;4957313;28;1094;-56
2023/12/07 05:34:41;;;;;;;;;;;;;;;16.28;46.81;100441.91;4956103;28;1977;-51
2023/12/07 05:37:06;;;;;;;;;;;;;;;16.05;47.57;100436.53;4971520;28;1095;-52
2023/12/07 05:39:32;;;;;;;;;;;;;;;15.93;47.94;100437.44;4976737;28;1080;-55
2023/12/07 05:41:57;;;;;;;;;;;;;;;15.76;47.58;100442.19;4963556;28;1045;-48
2023/12/07 05:44:23;;;;;;;;;;;;;;;16.64;46.14;100431.19;4962528;28;852;-49
2023/12/07 05:46:49;;;;;;;;;;;;;;;16.56;46.28;100433.59;4970049;28;1220;-54
2023/12/07 05:49:14;;;;;;;;;;;;;;;16.13;47.25;100444.75;4968983;28;1080;-51
2023/12/07 05:51:40;;;;;;;;;;;;;;;16.49;46.74;100444.72;4963577;28;1113;-54
2023/12/07 05:54:06;;;;;;;;;;;;;;;16.83;45.62;100443.03;4964978;28;1105;-53
2023/12/07 05:56:31;;;;;;;;;;;;;;;16.23;46.79;100441.41;4961078;28;1987;-56
2023/12/07 05:58:57;;;;;;;;;;;;;;;16.08;47.40;100454.03;4969177;28;2713;-52
2023/12/07 06:01:24;;;;;;;;;;;;;;;17.18;45.12;100460.66;4976680;28;1272;-54
2023/12/07 06:03:49;;;;;;;;;;;;;;;16.48;46.52;100466.06;4978430;28;1024;-50
2023/12/07 06:06:15;;;;;;;;;;;;;;;16.12;47.47;100466.94;4974181;28;1100;-49
2023/12/07 06:08:41;;;;;;;;;;;;;;;15.88;47.73;100472.28;4974614;28;874;-52
2023/12/07 06:11:07;;;;;;;;;;;;;;;16.66;46.33;100461.13;4965895;28;1186;-52
2023/12/07 06:13:33;;;;;;;;;;;;;;;16.81;45.63;100460.88;4967604;28;1148;-50
2023/12/07 06:15:59;;;;;;;;;;;;;;;16.23;47.04;100483.88;4964438;28;1918;-51
2023/12/07 06:18:25;;;;;;;;;;;;;;;16.38;47.06;100479.22;4980258;28;1065;-49
2023/12/07 06:20:50;;;;;;;;;;;;;;;17.08;45.08;100488.91;4970802;28;914;-51
2023/12/07 06:23:16;;;;;;;;;;;;;;;16.71;45.86;100490.00;4966259;28;1393;-46
2023/12/07 06:25:41;;;;;;;;;;;;;;;16.22;47.16;100490.97;4978893;28;1244;-51
2023/12/07 06:28:07;;;;;;;;;;;;;;;17.32;44.85;100486.13;4972083;28;2257;-52
2023/12/07 06:30:33;;;;;;;;;;;;;;;16.58;46.54;100488.28;4978829;28;1522;-51
2023/12/07 06:32:58;;;;;;;;;;;;;;;16.16;47.16;100494.94;4963901;28;941;-58
2023/12/07 06:35:24;;;;;;;;;;;;;;;16.08;47.71;100491.19;4965772;28;1984;-52
2023/12/07 06:37:49;;;;;;;;;;;;;;;17.33;45.03;100492.28;4961164;28;1386;-54
2023/12/07 06:40:15;;;;;;;;;;;;;;;16.79;45.79;100489.38;4956088;28;1204;-47
2023/12/07 06:42:41;;;;;;;;;;;;;;;16.32;47.03;100499.09;4961772;28;882;-49
2023/12/07 06:45:10;;;;;;;;;;;;;;;16.07;47.57;100498.28;4965372;28;1132;-47
2023/12/07 06:47:37;;;;;;;;;;;;;;;17.32;45.06;100506.53;4979207;28;1112;-53
2023/12/07 06:50:03;;;;;;;;;;;;;;;16.75;46.04;100502.91;4978682;28;1053;-50
2023/12/07 06:52:28;;;;;;;;;;;;;;;16.32;47.24;100503.53;4966976;28;1093;-52
2023/12/07 06:54:54;;;;;;;;;;;;;;;16.38;47.35;100506.56;4959647;28;1910;-51
2023/12/07 06:57:21;;;;;;;;;;;;;;;17.15;45.16;100511.38;4959346;28;1975;-53
2023/12/07 06:59:47;;;;;;;;;;;;;;;16.45;46.67;100512.28;4960025;28;1054;-52
2023/12/07 07:02:13;;;;;;;;;;;;;;;16.13;47.45;100510.25;4963709;28;907;-53
2023/12/07 07:04:39;;;;;;;;;;;;;;;16.68;46.74;100516.78;4978573;28;1032;-53
2023/12/07 07:07:04;;;;;;;;;;;;;;;16.81;45.85;100520.19;4964784;28;1104;-51
2023/12/07 07:09:30;;;;;;;;;;;;;;;16.27;47.38;100526.00;4967562;28;903;-48
2023/12/07 07:11:55;;;;;;;;;;;;;;;16.05;47.63;100526.75;4963325;28;1017;-52
2023/12/07 07:14:21;;;;;;;;;;;;;;;17.27;44.94;100535.34;4970189;28;1999;-55
2023/12/07 07:16:46;;;;;;;;;;;;;;;16.79;46.17;100535.41;4955084;28;848;-47
2023/12/07 07:19:13;;;;;;;;;;;;;;;16.30;47.31;100538.16;4955898;28;1141;-51
2023/12/07 07:21:38;;;;;;;;;;;;;;;16.03;47.52;100553.38;4958921;28;933;-49
2023/12/07 07:24:04;;;;;;;;;;;;;;;16.85;46.08;100540.22;4958783;28;947;-47
2023/12/07 07:26:30;;;;;;;;;;;;;;;17.00;45.52;100540.84;4959812;28;1235;-53
2023/12/07 07:28:55;;;;;;;;;;;;;;;16.44;46.68;100544.25;4956228;28;2306;-52
2023/12/07 07:31:21;;;;;;;;;;;;;;;16.06;47.80;100539.06;4953534;28;1129;-52
2023/12/07 07:33:49;;;;;;;;;;;;;;;16.32;47.54;100538.91;4964402;28;906;-56
2023/12/07 07:36:15;;;;;;;;;;;;;;;17.46;44.55;100543.53;4962816;28;1974;-55
2023/12/07 07:38:41;;;;;;;;;;;;;;;16.65;46.42;100547.06;4971496;28;1168;-52
2023/12/07 07:41:07;;;;;;;;;;;;;;;16.27;47.24;100543.72;4959279;28;998;-46
2023/12/07 07:43:34;;;;;;;;;;;;;;;15.99;48.09;100545.78;4963612;28;1060;-47
2023/12/07 07:46:00;;;;;;;;;;;;;;;17.06;45.82;100549.31;4956482;28;933;-46
2023/12/07 07:48:25;;;;;;;;;;;;;;;16.62;46.26;100540.19;4956766;28;910;-46
2023/12/07 07:50:51;;;;;;;;;;;;;;;16.18;47.58;100539.97;4964633;28;1029;-49
2023/12/07 07:53:17;;;;;;;;;;;;;;;16.80;46.97;100546.88;4958474;28;1169;-48
2023/12/07 07:55:42;;;;;;;;;;;;;;;17.40;45.27;100544.00;4961712;28;1902;-47
2023/12/07 07:58:08;;;;;;;;;;;;;;;17.02;45.79;100554.88;4957766;28;1828;-49
2023/12/07 08:00:34;;;;;;;;;;;;;;;16.45;47.15;100559.25;4969676;28;1152;-52
2023/12/07 08:03:00;;;;;;;;;;;;;;;16.10;48.00;100560.91;4962292;28;1125;-52
2023/12/07 08:05:25;;;;;;;;;;;;;;;17.27;45.63;100562.75;4957727;28;1116;-55
2023/12/07 08:07:51;;;;;;;;;;;;;;;16.69;46.88;100574.25;4963830;28;1148;-54
2023/12/07 08:10:16;;;;;;;;;;;;;;;16.23;47.67;100563.50;4970482;28;876;-49
2023/12/07 08:12:42;;;;;;;;;;;;;;;16.05;48.14;100582.47;4954792;28;1093;-52
2023/12/07 08:15:10;;;;;;;;;;;;;;;17.25;45.54;100575.31;4969710;28;1967;-51
2023/12/07 08:17:42;;;;;;;;;;;;;;;16.53;46.83;100573.59;4970233;28;1128;-51
2023/12/07 08:20:10;;;;;;;;;;;;;;;16.13;47.88;100573.94;4967565;28;1080;-53
2023/12/07 08:22:36;;;;;;;;;;;;;;;15.88;48.25;100567.78;4973022;28;1028;-49
2023/12/07 08:25:02;;;;;;;;;;;;;;;16.84;46.40;100569.56;4956544;28;1165;-47
2023/12/07 08:27:27;;;;;;;;;;;;;;;17.02;45.72;100581.44;4956484;28;2233;-48
2023/12/07 08:29:53;;;;;;;;;;;;;;;16.37;47.20;100571.28;4956744;28;1061;-48
2023/12/07 08:32:19;;;;;;;;;;;;;;;16.79;46.81;100569.94;4959217;28;1314;-48
2023/12/07 08:34:44;;;;;;;;;;;;;;;16.77;46.49;100566.53;4962266;28;1958;-51
2023/12/07 08:37:10;;;;;;;;;;;;;;;16.22;47.54;100567.09;4969126;28;1103;-46
2023/12/07 08:39:36;;;;;;;;;;;;;;;16.02;48.28;100569.41;4968866;28;1153;-52
2023/12/07 08:42:01;;;;;;;;;;;;;;;16.90;46.34;100579.72;4956566;28;1393;-51
2023/12/07 08:44:27;;;;;;;;;;;;;;;16.82;46.33;100566.19;4959209;28;1177;-54
2023/12/07 08:46:52;;;;;;;;;;;;;;;16.23;47.50;100572.28;4975620;28;1013;-51
2023/12/07 08:49:18;;;;;;;;;;;;;;;16.01;48.19;100579.22;4962109;28;1052;-50
2023/12/07 08:51:43;;;;;;;;;;;;;;;16.27;47.85;100572.91;4954273;28;1327;-51
2023/12/07 08:54:09;;;;;;;;;;;;;;;17.29;45.29;100584.75;4972089;28;1145;-48
2023/12/07 08:56:34;;;;;;;;;;;;;;;16.49;47.12;100577.47;4975135;28;1915;-53
2023/12/07 08:59:00;;;;;;;;;;;;;;;16.11;48.04;100567.91;4961700;28;1874;-52
2023/12/07 09:01:26;;;;;;;;;;;;;;;15.92;48.15;100590.44;4956541;28;1275;-47
2023/12/07 09:03:52;;;;;;;;;;;;;;;16.67;46.97;100579.69;4971021;28;1041;-49
2023/12/07 09:06:17;;;;;;;;;;;;;;;17.08;45.52;100584.59;4966933;28;1016;-49
2023/12/07 09:08:43;;;;;;;;;;;;;;;16.34;47.50;100587.44;4955453;28;1057;-51
2023/12/07 09:11:09;;;;;;;;;;;;;;;16.07;48.37;100585.00;4964243;28;1029;-51
2023/12/07 09:13:35;;;;;;;;;;;;;;;17.22;45.53;100587.03;4964519;28;1010;-48
2023/12/07 09:16:00;;;;;;;;;;;;;;;16.73;46.57;100587.16;4960693;28;1914;-45
2023/12/07 09:18:26;;;;;;;;;;;;;;;16.28;47.63;100579.94;4955629;28;1100;-48
2023/12/07 09:20:52;;;;;;;;;;;;;;;15.97;48.09;100588.31;4968352;28;1094;-51
2023/12/07 09:23:18;;;;;;;;;;;;;;;15.81;48.69;100582.44;4975254;28;1005;-53
2023/12/07 09:25:43;;;;;;;;;;;;;;;16.98;46.14;100585.28;4974920;28;1072;-51
2023/12/07 09:28:09;;;;;;;;;;;;;;;16.86;46.13;100589.75;4965259;28;1765;-51
2023/12/07 09:30:34;;;;;;;;;;;;;;;16.33;47.52;100574.28;4968064;28;1050;-54
2023/12/07 09:33:02;;;;;;;;;;;;;;;15.97;47.95;100590.97;4960545;28;942;-49
2023/12/07 09:35:28;;;;;;;;;;;;;;;16.66;46.91;100575.34;4973081;28;1984;-52
2023/12/07 09:37:54;;;;;;;;;;;;;;;17.01;45.73;100581.56;4964853;28;1180;-50
2023/12/07 09:40:20;;;;;;;;;;;;;;;16.38;47.13;100572.13;4959925;29;1139;-53
2023/12/07 09:42:46;;;;;;;;;;;;;;;16.05;48.00;100576.31;4967255;28;1081;-53
2023/12/07 09:45:12;;;;;;;;;;;;;;;16.79;46.35;100569.94;4963440;28;1115;-49
2023/12/07 09:47:41;;;;;;;;;;;;;;;16.67;46.60;100565.53;4959144;28;1010;-54
2023/12/07 09:50:09;;;;;;;;;;;;;;;16.14;47.84;100584.47;4958152;28;1339;-52
2023/12/07 09:52:35;;;;;;;;;;;;;;;17.28;45.42;100576.88;4960132;28;1327;-52
2023/12/07 09:55:04;;;;;;;;;;;;;;;16.56;46.49;100588.47;4959709;28;1919;-54
2023/12/07 09:57:30;;;;;;;;;;;;;;;16.14;47.78;100573.84;4963954;28;2335;-52
2023/12/07 09:59:55;;;;;;;;;;;;;;;15.93;48.05;100581.53;4959772;28;1251;-52
2023/12/07 10:02:21;;;;;;;;;;;;;;;16.46;45.78;100474.16;4957842;28;1275;-52
2023/12/07 10:04:47;;;;;;;;;;;;;;;16.51;46.58;100569.38;4959825;28;1078;-53
2023/12/07 10:07:13;;;;;;;;;;;;;;;16.08;47.97;100570.78;4953613;28;1214;-52
2023/12/07 10:09:40;;;;;;;;;;;;;;;16.36;47.35;100576.69;4965163;28;891;-53
2023/12/07 10:12:06;;;;;;;;;;;;;;;16.87;46.13;100572.84;4978200;28;1009;-51
2023/12/07 10:14:31;;;;;;;;;;;;;;;16.27;47.55;100567.59;4964317;28;1913;-50
2023/12/07 10:16:57;;;;;;;;;;;;;;;15.96;47.93;100556.59;4960857;28;1345;-51
2023/12/07 10:19:23;;;;;;;;;;;;;;;16.84;46.29;100566.91;4958148;29;1271;-51
2023/12/07 10:21:52;;;;;;;;;;;;;;;16.79;46.13;100574.38;4959484;28;1362;-55
2023/12/07 10:24:22;;;;;;;;;;;;;;;16.16;47.70;100569.25;4959125;28;1098;-50
2023/12/07 10:26:47;;;;;;;;;;;;;;;15.93;47.96;100562.13;4952846;28;1275;-51
2023/12/07 10:29:13;;;;;;;;;;;;;;;16.68;46.89;100575.22;4965335;28;2620;-53
2023/12/07 10:31:39;;;;;;;;;;;;;;;16.89;45.72;100565.59;4965065;28;1060;-48
2023/12/07 10:34:04;;;;;;;;;;;;;;;16.32;47.38;100567.25;4963657;28;1097;-53
2023/12/07 10:36:30;;;;;;;;;;;;;;;16.71;46.53;100559.06;4957692;28;1902;-47
2023/12/07 10:38:56;;;;;;;;;;;;;;;17.00;45.75;100567.41;4958525;28;1197;-53
2023/12/07 10:41:23;;;;;;;;;;;;;;;16.39;47.06;100568.50;4972339;28;1157;-52
2023/12/07 10:43:56;;;;;;;;;;;;;;;16.00;47.82;100563.38;4969275;28;1326;-53
2023/12/07 10:46:22;;;;;;;;;;;;;;;17.15;45.49;100563.72;4969522;28;1137;-55
2023/12/07 10:48:48;;;;;;;;;;;;;;;16.62;46.33;100558.78;4962544;28;1289;-50
2023/12/07 10:51:15;;;;;;;;;;;;;;;16.15;47.69;100564.03;4969755;28;1153;-54
2023/12/07 10:53:43;;;;;;;;;;;;;;;16.80;46.36;100563.63;4971404;28;938;-56
2023/12/07 10:56:10;;;;;;;;;;;;;;;16.88;45.78;100576.34;4966485;28;1902;-58
2023/12/07 10:58:36;;;;;;;;;;;;;;;16.30;47.15;100569.19;4966905;28;1853;-53
2023/12/07 11:01:01;;;;;;;;;;;;;;;15.98;47.97;100584.72;4967174;28;1260;-57
2023/12/07 11:03:27;;;;;;;;;;;;;;;17.17;45.63;100586.53;4938632;28;1004;-55
2023/12/07 11:05:52;;;;;;;;;;;;;;;16.89;45.67;100588.66;4964984;28;1099;-56
2023/12/07 11:08:31;;;;;;;;;;;;;;;16.31;46.98;100585.00;4956924;28;1156;-58
2023/12/07 11:11:15;;;;;;;;;;;;;;;16.01;47.81;100584.50;4959523;28;1090;-57
2023/12/07 11:13:40;;;;;;;;;;;;;;;17.17;45.33;100598.97;4957040;28;1351;-54
2023/12/07 11:16:06;;;;;;;;;;;;;;;16.43;46.80;100593.00;4964300;28;1913;-56
2023/12/07 11:18:32;;;;;;;;;;;;;;;16.07;47.36;100603.56;4958262;28;1335;-52
2023/12/07 11:20:58;;;;;;;;;;;;;;;16.06;47.88;100600.09;4958840;28;1319;-60
2023/12/07 11:23:23;;;;;;;;;;;;;;;17.36;45.01;100601.91;4964218;28;1109;-61
2023/12/07 11:25:50;;;;;;;;;;;;;;;16.64;46.43;100594.06;4958831;29;1393;-60
2023/12/07 11:28:16;;;;;;;;;;;;;;;16.21;46.99;100602.56;4958815;28;2355;-57
2023/12/07 11:30:42;;;;;;;;;;;;;;;16.11;47.62;100608.56;4972366;28;879;-60
2023/12/07 11:33:08;;;;;;;;;;;;;;;17.04;45.39;100605.22;4955748;28;1141;-58
2023/12/07 11:35:34;;;;;;;;;;;;;;;16.36;46.81;100613.88;4975897;28;1918;-56
2023/12/07 11:38:00;;;;;;;;;;;;;;;15.97;47.51;100608.69;4975841;28;1525;-59
2023/12/07 11:40:25;;;;;;;;;;;;;;;15.99;47.77;100612.97;4958784;28;1255;-56
2023/12/07 11:42:54;;;;;;;;;;;;;;;17.14;45.23;100621.34;4960977;28;1520;-59
2023/12/07 11:45:38;;;;;;;;;;;;;;;16.35;46.89;100613.00;4960173;28;1347;-54
2023/12/07 11:48:13;;;;;;;;;;;;;;;15.96;47.95;100622.91;4962357;28;995;-55
2023/12/07 11:50:58;;;;;;;;;;;;;;;16.89;46.00;100615.22;4952440;28;1058;-55
2023/12/07 11:53:29;;;;;;;;;;;;;;;16.99;45.41;100613.56;4974682;28;1006;-52
2023/12/07 11:55:54;;;;;;;;;;;;;;;16.35;47.10;100617.50;4963266;28;1973;-55
2023/12/07 11:58:20;;;;;;;;;;;;;;;16.01;47.50;100619.00;4963585;28;2346;-51
2023/12/07 12:00:46;;;;;;;;;;;;;;;15.82;48.04;100618.59;4958912;28;1153;-55
2023/12/07 12:03:15;;;;;;;;;;;;;;;17.11;45.38;100609.16;4966728;28;1112;-47
2023/12/07 12:05:41;;;;;;;;;;;;;;;16.59;46.34;100612.13;4956300;28;1225;-52
2023/12/07 12:08:06;;;;;;;;;;;;;;;16.12;47.48;100622.66;4955448;28;1453;-51
2023/12/07 12:10:32;;;;;;;;;;;;;;;15.84;47.73;100627.28;4955163;28;1110;-55
2023/12/07 12:13:01;;;;;;;;;;;;;;;16.74;46.33;100622.56;4956102;28;1360;-50
2023/12/07 12:15:27;;;;;;;;;;;;;;;16.82;45.77;100620.16;4961877;28;1899;-50
2023/12/07 12:17:53;;;;;;;;;;;;;;;16.16;47.28;100616.19;4965619;28;1540;-50
2023/12/07 12:20:18;;;;;;;;;;;;;;;16.59;46.40;100612.13;4963043;28;1099;-55
2023/12/07 12:22:44;;;;;;;;;;;;;;;17.02;45.16;100626.63;4967161;28;1096;-51
2023/12/07 12:25:10;;;;;;;;;;;;;;;16.36;46.81;100619.16;4957814;28;1410;-52
2023/12/07 12:27:36;;;;;;;;;;;;;;;16.08;47.58;100623.88;4957730;28;2253;-50
2023/12/07 12:30:02;;;;;;;;;;;;;;;17.12;45.12;100620.59;4969505;28;1027;-55
2023/12/07 12:32:27;;;;;;;;;;;;;;;16.44;46.54;100613.28;4958428;28;1342;-55
2023/12/07 12:34:53;;;;;;;;;;;;;;;16.13;47.50;100625.19;4962436;28;1979;-54
2023/12/07 12:37:18;;;;;;;;;;;;;;;17.23;44.86;100617.97;4967330;28;1685;-54
2023/12/07 12:39:44;;;;;;;;;;;;;;;16.58;45.97;100621.06;4970085;28;1018;-53
2023/12/07 12:42:11;;;;;;;;;;;;;;;16.16;47.34;100613.53;4961641;28;1246;-52